sensor_id;sensor_type;location;lat;lon;timestamp;P1;durP1;ratioP1;P2;durP2;ratioP2
14732;SDS011;7457;50.960;6.830;2024-03-17T00:00:21;10.43;;;9.32;;
14732;SDS011;7457;50.960;6.830;2024-03-17T00:02:48;14.02;;;9.43;;
14732;SDS011;7457;50.960;6.830;2024-03-17T00:05:14;14.15;;;9.90;;
14732;SDS011;7457;50.960;6.830;2024-03-17T00:07:40;14.20;;;9.60;;
14732;SDS011;7457;50.960;6.830;2024-03-17T00:10:06;12.55;;;9.95;;
14732;SDS011;7457;50.960;6.830;2024-03-17T00:12:36;12.55;;;9.65;;
14732;SDS011;7457;50.960;6.830;2024-03-17T00:15:02;14.10;;;10.07;;
14732;SDS011;7457;50.960;6.830;2024-03-17T00:17:29;14.00;;;10.32;;
14732;SDS011;7457;50.960;6.830;2024-03-17T00:19:55;16.67;;;9.98;;
14732;SDS011;7457;50.960;6.830;2024-03-17T00:22:20;13.40;;;10.73;;
14732;SDS011;7457;50.960;6.830;2024-03-17T00:24:46;12.88;;;9.77;;
14732;SDS011;7457;50.960;6.830;2024-03-17T00:27:12;15.32;;;10.15;;
14732;SDS011;7457;50.960;6.830;2024-03-17T00:29:38;12.98;;;9.40;;
14732;SDS011;7457;50.960;6.830;2024-03-17T00:32:04;12.00;;;9.43;;
14732;SDS011;7457;50.960;6.830;2024-03-17T00:34:31;14.98;;;10.27;;
14732;SDS011;7457;50.960;6.830;2024-03-17T00:36:57;12.07;;;9.50;;
14732;SDS011;7457;50.960;6.830;2024-03-17T00:39:24;13.18;;;9.13;;
14732;SDS011;7457;50.960;6.830;2024-03-17T00:41:50;15.30;;;10.05;;
14732;SDS011;7457;50.960;6.830;2024-03-17T00:44:16;18.80;;;8.95;;
14732;SDS011;7457;50.960;6.830;2024-03-17T00:46:42;11.95;;;9.02;;
14732;SDS011;7457;50.960;6.830;2024-03-17T00:49:08;12.25;;;10.30;;
14732;SDS011;7457;50.960;6.830;2024-03-17T00:51:35;13.43;;;10.20;;
14732;SDS011;7457;50.960;6.830;2024-03-17T00:54:01;12.50;;;10.07;;
14732;SDS011;7457;50.960;6.830;2024-03-17T00:56:27;14.73;;;10.60;;
14732;SDS011;7457;50.960;6.830;2024-03-17T00:58:53;17.23;;;10.32;;
14732;SDS011;7457;50.960;6.830;2024-03-17T01:01:18;15.85;;;11.23;;
14732;SDS011;7457;50.960;6.830;2024-03-17T01:03:45;15.70;;;11.25;;
14732;SDS011;7457;50.960;6.830;2024-03-17T01:06:11;12.07;;;10.52;;
14732;SDS011;7457;50.960;6.830;2024-03-17T01:08:36;15.32;;;10.15;;
14732;SDS011;7457;50.960;6.830;2024-03-17T01:11:02;13.02;;;10.52;;
14732;SDS011;7457;50.960;6.830;2024-03-17T01:13:28;13.73;;;9.15;;
14732;SDS011;7457;50.960;6.830;2024-03-17T01:15:54;10.88;;;8.02;;
14732;SDS011;7457;50.960;6.830;2024-03-17T01:18:20;12.63;;;7.57;;
14732;SDS011;7457;50.960;6.830;2024-03-17T01:20:46;9.48;;;7.72;;
14732;SDS011;7457;50.960;6.830;2024-03-17T01:23:11;12.73;;;9.27;;
14732;SDS011;7457;50.960;6.830;2024-03-17T01:25:38;13.00;;;9.02;;
14732;SDS011;7457;50.960;6.830;2024-03-17T01:28:04;10.30;;;8.27;;
14732;SDS011;7457;50.960;6.830;2024-03-17T01:30:31;11.15;;;8.88;;
14732;SDS011;7457;50.960;6.830;2024-03-17T01:32:58;11.25;;;9.52;;
14732;SDS011;7457;50.960;6.830;2024-03-17T01:35:25;14.10;;;9.88;;
14732;SDS011;7457;50.960;6.830;2024-03-17T01:37:51;10.60;;;8.60;;
14732;SDS011;7457;50.960;6.830;2024-03-17T01:40:17;12.00;;;8.60;;
14732;SDS011;7457;50.960;6.830;2024-03-17T01:42:42;12.15;;;8.60;;
14732;SDS011;7457;50.960;6.830;2024-03-17T01:47:49;14.45;;;9.73;;
14732;SDS011;7457;50.960;6.830;2024-03-17T01:50:15;17.35;;;11.13;;
14732;SDS011;7457;50.960;6.830;2024-03-17T01:52:44;15.50;;;11.18;;
14732;SDS011;7457;50.960;6.830;2024-03-17T01:55:11;14.23;;;10.55;;
14732;SDS011;7457;50.960;6.830;2024-03-17T01:57:37;12.30;;;10.07;;
14732;SDS011;7457;50.960;6.830;2024-03-17T02:00:04;14.18;;;10.68;;
14732;SDS011;7457;50.960;6.830;2024-03-17T02:02:33;14.18;;;10.52;;
14732;SDS011;7457;50.960;6.830;2024-03-17T02:05:00;11.27;;;9.68;;
14732;SDS011;7457;50.960;6.830;2024-03-17T02:07:28;10.55;;;8.55;;
14732;SDS011;7457;50.960;6.830;2024-03-17T02:09:53;9.95;;;7.93;;
14732;SDS011;7457;50.960;6.830;2024-03-17T02:12:21;14.13;;;8.15;;
14732;SDS011;7457;50.960;6.830;2024-03-17T02:14:47;10.65;;;9.15;;
14732;SDS011;7457;50.960;6.830;2024-03-17T02:17:13;16.10;;;8.95;;
14732;SDS011;7457;50.960;6.830;2024-03-17T02:19:38;12.43;;;8.90;;
14732;SDS011;7457;50.960;6.830;2024-03-17T02:22:08;11.05;;;9.63;;
14732;SDS011;7457;50.960;6.830;2024-03-17T02:24:42;15.57;;;9.98;;
14732;SDS011;7457;50.960;6.830;2024-03-17T02:27:08;15.45;;;10.05;;
14732;SDS011;7457;50.960;6.830;2024-03-17T02:29:34;12.48;;;9.63;;
14732;SDS011;7457;50.960;6.830;2024-03-17T02:32:02;15.88;;;10.85;;
14732;SDS011;7457;50.960;6.830;2024-03-17T02:34:34;12.00;;;10.10;;
14732;SDS011;7457;50.960;6.830;2024-03-17T02:37:01;12.88;;;10.52;;
14732;SDS011;7457;50.960;6.830;2024-03-17T02:39:29;14.35;;;10.23;;
14732;SDS011;7457;50.960;6.830;2024-03-17T02:42:02;12.82;;;9.82;;
14732;SDS011;7457;50.960;6.830;2024-03-17T02:44:29;13.90;;;10.13;;
14732;SDS011;7457;50.960;6.830;2024-03-17T02:46:56;11.57;;;10.00;;
14732;SDS011;7457;50.960;6.830;2024-03-17T02:49:26;14.13;;;10.15;;
14732;SDS011;7457;50.960;6.830;2024-03-17T02:51:53;12.68;;;9.77;;
14732;SDS011;7457;50.960;6.830;2024-03-17T02:54:20;13.60;;;9.80;;
14732;SDS011;7457;50.960;6.830;2024-03-17T02:56:46;14.55;;;10.48;;
14732;SDS011;7457;50.960;6.830;2024-03-17T02:59:12;12.77;;;10.40;;
14732;SDS011;7457;50.960;6.830;2024-03-17T03:01:38;12.98;;;10.30;;
14732;SDS011;7457;50.960;6.830;2024-03-17T03:04:05;13.75;;;11.25;;
14732;SDS011;7457;50.960;6.830;2024-03-17T03:06:32;17.30;;;11.55;;
14732;SDS011;7457;50.960;6.830;2024-03-17T03:09:00;13.07;;;11.02;;
14732;SDS011;7457;50.960;6.830;2024-03-17T03:11:26;12.23;;;10.05;;
14732;SDS011;7457;50.960;6.830;2024-03-17T03:13:51;17.92;;;10.38;;
14732;SDS011;7457;50.960;6.830;2024-03-17T03:16:17;17.17;;;10.90;;
14732;SDS011;7457;50.960;6.830;2024-03-17T03:18:44;15.60;;;10.93;;
14732;SDS011;7457;50.960;6.830;2024-03-17T03:21:10;13.35;;;10.75;;
14732;SDS011;7457;50.960;6.830;2024-03-17T03:23:37;14.43;;;9.98;;
14732;SDS011;7457;50.960;6.830;2024-03-17T03:26:03;12.68;;;10.90;;
14732;SDS011;7457;50.960;6.830;2024-03-17T03:28:30;15.48;;;10.25;;
14732;SDS011;7457;50.960;6.830;2024-03-17T03:30:57;11.07;;;9.63;;
14732;SDS011;7457;50.960;6.830;2024-03-17T03:33:23;10.35;;;9.02;;
14732;SDS011;7457;50.960;6.830;2024-03-17T03:35:49;11.50;;;9.43;;
14732;SDS011;7457;50.960;6.830;2024-03-17T03:38:16;14.15;;;9.50;;
14732;SDS011;7457;50.960;6.830;2024-03-17T03:40:42;15.25;;;10.07;;
14732;SDS011;7457;50.960;6.830;2024-03-17T03:43:08;11.40;;;9.70;;
14732;SDS011;7457;50.960;6.830;2024-03-17T03:45:35;13.18;;;9.25;;
14732;SDS011;7457;50.960;6.830;2024-03-17T03:48:02;11.27;;;8.60;;
14732;SDS011;7457;50.960;6.830;2024-03-17T03:50:29;8.52;;;7.68;;
14732;SDS011;7457;50.960;6.830;2024-03-17T03:52:55;12.13;;;9.40;;
14732;SDS011;7457;50.960;6.830;2024-03-17T03:55:21;14.23;;;9.50;;
14732;SDS011;7457;50.960;6.830;2024-03-17T03:57:46;12.90;;;9.75;;
14732;SDS011;7457;50.960;6.830;2024-03-17T04:00:17;14.43;;;10.50;;
14732;SDS011;7457;50.960;6.830;2024-03-17T04:02:50;13.95;;;11.02;;
14732;SDS011;7457;50.960;6.830;2024-03-17T04:05:18;16.30;;;10.95;;
14732;SDS011;7457;50.960;6.830;2024-03-17T04:07:45;12.80;;;10.93;;
14732;SDS011;7457;50.960;6.830;2024-03-17T04:10:15;13.55;;;10.68;;
14732;SDS011;7457;50.960;6.830;2024-03-17T04:12:43;13.30;;;10.32;;
14732;SDS011;7457;50.960;6.830;2024-03-17T04:15:09;13.02;;;10.32;;
14732;SDS011;7457;50.960;6.830;2024-03-17T04:17:35;14.57;;;11.52;;
14732;SDS011;7457;50.960;6.830;2024-03-17T04:20:02;14.75;;;10.65;;
14732;SDS011;7457;50.960;6.830;2024-03-17T04:22:30;13.57;;;10.63;;
14732;SDS011;7457;50.960;6.830;2024-03-17T04:24:56;14.93;;;10.70;;
14732;SDS011;7457;50.960;6.830;2024-03-17T04:27:22;15.80;;;10.85;;
14732;SDS011;7457;50.960;6.830;2024-03-17T04:29:54;13.93;;;11.35;;
14732;SDS011;7457;50.960;6.830;2024-03-17T04:32:25;16.77;;;11.25;;
14732;SDS011;7457;50.960;6.830;2024-03-17T04:34:53;13.70;;;10.63;;
14732;SDS011;7457;50.960;6.830;2024-03-17T04:37:19;12.73;;;10.30;;
14732;SDS011;7457;50.960;6.830;2024-03-17T04:39:46;13.00;;;10.18;;
14732;SDS011;7457;50.960;6.830;2024-03-17T04:42:12;13.60;;;10.60;;
14732;SDS011;7457;50.960;6.830;2024-03-17T04:44:39;15.02;;;10.98;;
14732;SDS011;7457;50.960;6.830;2024-03-17T04:47:06;16.35;;;10.50;;
14732;SDS011;7457;50.960;6.830;2024-03-17T04:49:38;13.07;;;10.48;;
14732;SDS011;7457;50.960;6.830;2024-03-17T04:52:08;14.43;;;10.02;;
14732;SDS011;7457;50.960;6.830;2024-03-17T04:54:34;13.93;;;10.25;;
14732;SDS011;7457;50.960;6.830;2024-03-17T04:57:00;13.50;;;10.65;;
14732;SDS011;7457;50.960;6.830;2024-03-17T04:59:27;12.82;;;10.40;;
14732;SDS011;7457;50.960;6.830;2024-03-17T05:01:52;14.85;;;10.30;;
14732;SDS011;7457;50.960;6.830;2024-03-17T05:04:18;10.73;;;8.90;;
14732;SDS011;7457;50.960;6.830;2024-03-17T05:06:44;15.57;;;9.73;;
14732;SDS011;7457;50.960;6.830;2024-03-17T05:09:15;12.48;;;8.98;;
14732;SDS011;7457;50.960;6.830;2024-03-17T05:11:44;12.45;;;10.23;;
14732;SDS011;7457;50.960;6.830;2024-03-17T05:14:10;12.93;;;8.85;;
14732;SDS011;7457;50.960;6.830;2024-03-17T05:16:36;9.85;;;8.75;;
14732;SDS011;7457;50.960;6.830;2024-03-17T05:19:02;10.88;;;8.95;;
14732;SDS011;7457;50.960;6.830;2024-03-17T05:21:28;12.77;;;9.80;;
14732;SDS011;7457;50.960;6.830;2024-03-17T05:23:55;13.48;;;9.20;;
14732;SDS011;7457;50.960;6.830;2024-03-17T05:26:25;13.07;;;9.45;;
14732;SDS011;7457;50.960;6.830;2024-03-17T05:28:51;13.07;;;9.88;;
14732;SDS011;7457;50.960;6.830;2024-03-17T05:31:16;10.68;;;8.90;;
14732;SDS011;7457;50.960;6.830;2024-03-17T05:33:43;11.68;;;9.48;;
14732;SDS011;7457;50.960;6.830;2024-03-17T05:36:10;11.02;;;9.40;;
14732;SDS011;7457;50.960;6.830;2024-03-17T05:38:35;10.73;;;9.48;;
14732;SDS011;7457;50.960;6.830;2024-03-17T05:41:10;12.88;;;9.15;;
14732;SDS011;7457;50.960;6.830;2024-03-17T05:43:36;12.25;;;9.18;;
14732;SDS011;7457;50.960;6.830;2024-03-17T05:48:35;10.23;;;9.15;;
14732;SDS011;7457;50.960;6.830;2024-03-17T05:51:11;10.80;;;8.75;;
14732;SDS011;7457;50.960;6.830;2024-03-17T05:53:38;10.65;;;9.50;;
14732;SDS011;7457;50.960;6.830;2024-03-17T05:56:05;11.05;;;9.95;;
14732;SDS011;7457;50.960;6.830;2024-03-17T05:58:36;11.48;;;9.73;;
14732;SDS011;7457;50.960;6.830;2024-03-17T06:01:02;11.23;;;9.07;;
14732;SDS011;7457;50.960;6.830;2024-03-17T06:03:29;10.50;;;9.23;;
14732;SDS011;7457;50.960;6.830;2024-03-17T06:05:54;13.45;;;10.25;;
14732;SDS011;7457;50.960;6.830;2024-03-17T06:08:20;12.20;;;9.50;;
14732;SDS011;7457;50.960;6.830;2024-03-17T06:10:47;10.95;;;9.55;;
14732;SDS011;7457;50.960;6.830;2024-03-17T06:13:13;12.38;;;9.40;;
14732;SDS011;7457;50.960;6.830;2024-03-17T06:15:42;13.10;;;9.25;;
14732;SDS011;7457;50.960;6.830;2024-03-17T06:18:09;11.45;;;8.98;;
14732;SDS011;7457;50.960;6.830;2024-03-17T06:20:41;11.02;;;8.27;;
14732;SDS011;7457;50.960;6.830;2024-03-17T06:23:11;10.20;;;8.65;;
14732;SDS011;7457;50.960;6.830;2024-03-17T06:25:41;12.35;;;8.73;;
14732;SDS011;7457;50.960;6.830;2024-03-17T06:28:08;10.32;;;8.75;;
14732;SDS011;7457;50.960;6.830;2024-03-17T06:30:41;13.27;;;8.75;;
14732;SDS011;7457;50.960;6.830;2024-03-17T06:33:15;9.52;;;8.50;;
14732;SDS011;7457;50.960;6.830;2024-03-17T06:35:44;9.85;;;7.65;;
14732;SDS011;7457;50.960;6.830;2024-03-17T06:38:12;9.75;;;6.97;;
14732;SDS011;7457;50.960;6.830;2024-03-17T06:40:38;7.63;;;6.82;;
14732;SDS011;7457;50.960;6.830;2024-03-17T06:43:04;8.35;;;7.30;;
14732;SDS011;7457;50.960;6.830;2024-03-17T06:45:30;7.38;;;6.55;;
14732;SDS011;7457;50.960;6.830;2024-03-17T06:47:57;7.65;;;6.53;;
14732;SDS011;7457;50.960;6.830;2024-03-17T06:50:23;11.48;;;6.75;;
14732;SDS011;7457;50.960;6.830;2024-03-17T06:52:49;10.05;;;6.78;;
14732;SDS011;7457;50.960;6.830;2024-03-17T06:55:17;9.68;;;6.82;;
14732;SDS011;7457;50.960;6.830;2024-03-17T06:57:49;7.43;;;5.90;;
14732;SDS011;7457;50.960;6.830;2024-03-17T07:00:16;8.93;;;6.32;;
14732;SDS011;7457;50.960;6.830;2024-03-17T07:02:43;9.43;;;7.10;;
14732;SDS011;7457;50.960;6.830;2024-03-17T07:05:12;8.77;;;7.07;;
14732;SDS011;7457;50.960;6.830;2024-03-17T07:07:45;6.90;;;6.20;;
14732;SDS011;7457;50.960;6.830;2024-03-17T07:10:11;7.32;;;6.35;;
14732;SDS011;7457;50.960;6.830;2024-03-17T07:12:40;6.75;;;6.00;;
14732;SDS011;7457;50.960;6.830;2024-03-17T07:15:07;7.07;;;5.93;;
14732;SDS011;7457;50.960;6.830;2024-03-17T07:17:33;6.82;;;6.10;;
14732;SDS011;7457;50.960;6.830;2024-03-17T07:19:59;8.57;;;5.93;;
14732;SDS011;7457;50.960;6.830;2024-03-17T07:22:26;7.68;;;6.35;;
14732;SDS011;7457;50.960;6.830;2024-03-17T07:24:53;6.15;;;5.32;;
14732;SDS011;7457;50.960;6.830;2024-03-17T07:27:26;7.68;;;6.00;;
14732;SDS011;7457;50.960;6.830;2024-03-17T07:29:53;6.53;;;5.05;;
14732;SDS011;7457;50.960;6.830;2024-03-17T07:32:18;6.95;;;4.88;;
14732;SDS011;7457;50.960;6.830;2024-03-17T07:34:44;7.47;;;4.75;;
14732;SDS011;7457;50.960;6.830;2024-03-17T07:37:10;6.22;;;5.47;;
14732;SDS011;7457;50.960;6.830;2024-03-17T07:39:36;6.07;;;5.40;;
14732;SDS011;7457;50.960;6.830;2024-03-17T07:42:01;6.78;;;5.13;;
14732;SDS011;7457;50.960;6.830;2024-03-17T07:44:28;5.90;;;4.45;;
14732;SDS011;7457;50.960;6.830;2024-03-17T07:46:58;5.95;;;4.68;;
14732;SDS011;7457;50.960;6.830;2024-03-17T07:49:29;6.25;;;5.07;;
14732;SDS011;7457;50.960;6.830;2024-03-17T07:51:55;5.68;;;4.75;;
14732;SDS011;7457;50.960;6.830;2024-03-17T07:54:23;5.03;;;4.45;;
14732;SDS011;7457;50.960;6.830;2024-03-17T07:56:49;6.50;;;4.60;;
14732;SDS011;7457;50.960;6.830;2024-03-17T07:59:15;6.22;;;4.65;;
14732;SDS011;7457;50.960;6.830;2024-03-17T08:01:43;4.43;;;4.03;;
14732;SDS011;7457;50.960;6.830;2024-03-17T08:04:09;5.90;;;4.45;;
14732;SDS011;7457;50.960;6.830;2024-03-17T08:06:37;5.38;;;4.50;;
14732;SDS011;7457;50.960;6.830;2024-03-17T08:09:06;6.18;;;4.50;;
14732;SDS011;7457;50.960;6.830;2024-03-17T08:11:33;6.22;;;4.50;;
14732;SDS011;7457;50.960;6.830;2024-03-17T08:14:00;4.90;;;4.20;;
14732;SDS011;7457;50.960;6.830;2024-03-17T08:16:26;4.55;;;3.92;;
14732;SDS011;7457;50.960;6.830;2024-03-17T08:18:53;4.60;;;4.20;;
14732;SDS011;7457;50.960;6.830;2024-03-17T08:21:19;6.65;;;5.38;;
14732;SDS011;7457;50.960;6.830;2024-03-17T08:23:44;5.07;;;4.50;;
14732;SDS011;7457;50.960;6.830;2024-03-17T08:26:12;4.72;;;4.32;;
14732;SDS011;7457;50.960;6.830;2024-03-17T08:28:38;4.78;;;4.32;;
14732;SDS011;7457;50.960;6.830;2024-03-17T08:31:04;5.05;;;4.30;;
14732;SDS011;7457;50.960;6.830;2024-03-17T08:33:30;6.25;;;4.35;;
14732;SDS011;7457;50.960;6.830;2024-03-17T08:35:59;6.57;;;4.65;;
14732;SDS011;7457;50.960;6.830;2024-03-17T08:38:26;6.57;;;4.45;;
14732;SDS011;7457;50.960;6.830;2024-03-17T08:40:53;5.72;;;4.43;;
14732;SDS011;7457;50.960;6.830;2024-03-17T08:43:20;4.55;;;4.15;;
14732;SDS011;7457;50.960;6.830;2024-03-17T08:45:59;6.53;;;3.80;;
14732;SDS011;7457;50.960;6.830;2024-03-17T08:48:28;6.43;;;4.00;;
14732;SDS011;7457;50.960;6.830;2024-03-17T08:50:56;4.80;;;4.18;;
14732;SDS011;7457;50.960;6.830;2024-03-17T08:53:23;5.30;;;4.30;;
14732;SDS011;7457;50.960;6.830;2024-03-17T08:55:49;4.63;;;4.15;;
14732;SDS011;7457;50.960;6.830;2024-03-17T08:58:15;5.10;;;3.85;;
14732;SDS011;7457;50.960;6.830;2024-03-17T09:00:41;5.05;;;4.55;;
14732;SDS011;7457;50.960;6.830;2024-03-17T09:03:07;5.72;;;5.05;;
14732;SDS011;7457;50.960;6.830;2024-03-17T09:05:39;4.80;;;4.40;;
14732;SDS011;7457;50.960;6.830;2024-03-17T09:08:07;5.97;;;4.22;;
14732;SDS011;7457;50.960;6.830;2024-03-17T09:10:42;4.82;;;4.35;;
14732;SDS011;7457;50.960;6.830;2024-03-17T09:13:15;6.43;;;4.45;;
14732;SDS011;7457;50.960;6.830;2024-03-17T09:18:30;5.07;;;4.57;;
14732;SDS011;7457;50.960;6.830;2024-03-17T09:23:23;7.85;;;4.75;;
14732;SDS011;7457;50.960;6.830;2024-03-17T09:25:59;5.30;;;4.60;;
14732;SDS011;7457;50.960;6.830;2024-03-17T09:28:27;5.80;;;4.28;;
14732;SDS011;7457;50.960;6.830;2024-03-17T09:30:54;4.63;;;4.20;;
14732;SDS011;7457;50.960;6.830;2024-03-17T09:33:21;4.80;;;4.40;;
14732;SDS011;7457;50.960;6.830;2024-03-17T09:35:54;5.43;;;4.35;;
14732;SDS011;7457;50.960;6.830;2024-03-17T09:38:21;5.03;;;4.53;;
14732;SDS011;7457;50.960;6.830;2024-03-17T09:40:47;6.18;;;4.72;;
14732;SDS011;7457;50.960;6.830;2024-03-17T09:43:23;7.53;;;4.70;;
14732;SDS011;7457;50.960;6.830;2024-03-17T09:45:50;4.50;;;4.10;;
14732;SDS011;7457;50.960;6.830;2024-03-17T09:48:20;5.75;;;4.30;;
14732;SDS011;7457;50.960;6.830;2024-03-17T09:51:01;4.90;;;4.13;;
14732;SDS011;7457;50.960;6.830;2024-03-17T09:56:01;4.95;;;4.40;;
14732;SDS011;7457;50.960;6.830;2024-03-17T09:58:29;5.88;;;4.22;;
14732;SDS011;7457;50.960;6.830;2024-03-17T10:00:55;5.20;;;4.22;;
14732;SDS011;7457;50.960;6.830;2024-03-17T10:03:39;7.07;;;4.53;;
14732;SDS011;7457;50.960;6.830;2024-03-17T10:06:10;8.15;;;4.50;;
14732;SDS011;7457;50.960;6.830;2024-03-17T10:08:46;5.57;;;4.22;;
14732;SDS011;7457;50.960;6.830;2024-03-17T10:11:13;6.85;;;4.57;;
14732;SDS011;7457;50.960;6.830;2024-03-17T10:13:41;4.82;;;4.20;;
14732;SDS011;7457;50.960;6.830;2024-03-17T10:16:21;5.38;;;4.20;;
14732;SDS011;7457;50.960;6.830;2024-03-17T10:21:40;5.32;;;4.05;;
14732;SDS011;7457;50.960;6.830;2024-03-17T10:24:08;4.47;;;3.55;;
14732;SDS011;7457;50.960;6.830;2024-03-17T10:31:58;4.28;;;3.88;;
14732;SDS011;7457;50.960;6.830;2024-03-17T10:34:27;5.57;;;3.83;;
14732;SDS011;7457;50.960;6.830;2024-03-17T10:39:53;5.00;;;4.03;;
14732;SDS011;7457;50.960;6.830;2024-03-17T10:42:27;4.10;;;3.78;;
14732;SDS011;7457;50.960;6.830;2024-03-17T10:44:54;4.18;;;3.80;;
14732;SDS011;7457;50.960;6.830;2024-03-17T10:49:47;5.95;;;4.07;;
14732;SDS011;7457;50.960;6.830;2024-03-17T10:52:16;5.78;;;4.15;;
14732;SDS011;7457;50.960;6.830;2024-03-17T10:54:49;5.15;;;4.25;;
14732;SDS011;7457;50.960;6.830;2024-03-17T10:57:46;5.70;;;4.20;;
14732;SDS011;7457;50.960;6.830;2024-03-17T11:00:13;5.78;;;4.53;;
14732;SDS011;7457;50.960;6.830;2024-03-17T11:02:44;5.43;;;4.03;;
14732;SDS011;7457;50.960;6.830;2024-03-17T11:05:13;4.93;;;4.22;;
14732;SDS011;7457;50.960;6.830;2024-03-17T11:07:41;4.57;;;4.10;;
14732;SDS011;7457;50.960;6.830;2024-03-17T11:12:50;5.40;;;4.25;;
14732;SDS011;7457;50.960;6.830;2024-03-17T11:17:54;5.70;;;3.92;;
14732;SDS011;7457;50.960;6.830;2024-03-17T11:20:32;6.15;;;4.55;;
14732;SDS011;7457;50.960;6.830;2024-03-17T11:22:59;5.53;;;3.97;;
14732;SDS011;7457;50.960;6.830;2024-03-17T11:27:51;6.85;;;3.90;;
14732;SDS011;7457;50.960;6.830;2024-03-17T11:41:38;7.40;;;4.00;;
14732;SDS011;7457;50.960;6.830;2024-03-17T11:44:15;7.50;;;4.15;;
14732;SDS011;7457;50.960;6.830;2024-03-17T11:46:50;5.90;;;3.70;;
14732;SDS011;7457;50.960;6.830;2024-03-17T11:51:49;6.28;;;3.90;;
14732;SDS011;7457;50.960;6.830;2024-03-17T11:54:16;5.20;;;4.35;;
14732;SDS011;7457;50.960;6.830;2024-03-17T11:56:53;8.55;;;4.47;;
14732;SDS011;7457;50.960;6.830;2024-03-17T11:59:20;6.25;;;4.55;;
14732;SDS011;7457;50.960;6.830;2024-03-17T12:01:48;5.78;;;4.53;;
14732;SDS011;7457;50.960;6.830;2024-03-17T12:04:15;5.65;;;4.43;;
14732;SDS011;7457;50.960;6.830;2024-03-17T12:09:20;7.18;;;3.92;;
14732;SDS011;7457;50.960;6.830;2024-03-17T12:11:47;4.25;;;3.72;;
14732;SDS011;7457;50.960;6.830;2024-03-17T12:14:34;6.47;;;4.13;;
14732;SDS011;7457;50.960;6.830;2024-03-17T12:17:07;6.45;;;4.38;;
14732;SDS011;7457;50.960;6.830;2024-03-17T12:19:34;7.38;;;4.10;;
14732;SDS011;7457;50.960;6.830;2024-03-17T12:22:01;4.25;;;3.70;;
14732;SDS011;7457;50.960;6.830;2024-03-17T12:24:28;5.10;;;3.75;;
14732;SDS011;7457;50.960;6.830;2024-03-17T12:26:56;4.90;;;4.38;;
14732;SDS011;7457;50.960;6.830;2024-03-17T12:32:18;7.15;;;4.63;;
14732;SDS011;7457;50.960;6.830;2024-03-17T12:34:45;5.93;;;4.70;;
14732;SDS011;7457;50.960;6.830;2024-03-17T12:39:44;5.72;;;4.20;;
14732;SDS011;7457;50.960;6.830;2024-03-17T12:42:12;6.10;;;4.13;;
14732;SDS011;7457;50.960;6.830;2024-03-17T12:44:40;4.20;;;3.80;;
14732;SDS011;7457;50.960;6.830;2024-03-17T12:47:22;5.88;;;4.03;;
14732;SDS011;7457;50.960;6.830;2024-03-17T12:49:56;8.13;;;4.05;;
14732;SDS011;7457;50.960;6.830;2024-03-17T12:52:27;6.25;;;4.20;;
14732;SDS011;7457;50.960;6.830;2024-03-17T12:55:00;6.07;;;4.00;;
14732;SDS011;7457;50.960;6.830;2024-03-17T12:57:52;4.80;;;4.30;;
14732;SDS011;7457;50.960;6.830;2024-03-17T13:00:58;7.50;;;4.15;;
14732;SDS011;7457;50.960;6.830;2024-03-17T13:03:32;5.22;;;4.20;;
14732;SDS011;7457;50.960;6.830;2024-03-17T13:05:59;5.82;;;4.07;;
14732;SDS011;7457;50.960;6.830;2024-03-17T13:08:27;6.03;;;4.10;;
14732;SDS011;7457;50.960;6.830;2024-03-17T13:10:53;5.22;;;4.00;;
14732;SDS011;7457;50.960;6.830;2024-03-17T13:13:19;5.95;;;4.20;;
14732;SDS011;7457;50.960;6.830;2024-03-17T13:15:45;4.43;;;4.00;;
14732;SDS011;7457;50.960;6.830;2024-03-17T13:18:15;4.22;;;3.83;;
14732;SDS011;7457;50.960;6.830;2024-03-17T13:20:46;4.57;;;3.60;;
14732;SDS011;7457;50.960;6.830;2024-03-17T13:23:12;5.45;;;3.75;;
14732;SDS011;7457;50.960;6.830;2024-03-17T13:25:38;8.13;;;3.90;;
14732;SDS011;7457;50.960;6.830;2024-03-17T13:28:08;4.75;;;3.75;;
14732;SDS011;7457;50.960;6.830;2024-03-17T13:30:34;5.07;;;4.25;;
14732;SDS011;7457;50.960;6.830;2024-03-17T13:33:01;4.80;;;3.78;;
14732;SDS011;7457;50.960;6.830;2024-03-17T13:35:33;6.22;;;3.80;;
14732;SDS011;7457;50.960;6.830;2024-03-17T13:38:00;4.05;;;3.65;;
14732;SDS011;7457;50.960;6.830;2024-03-17T13:40:27;4.53;;;4.13;;
14732;SDS011;7457;50.960;6.830;2024-03-17T13:42:54;3.88;;;3.47;;
14732;SDS011;7457;50.960;6.830;2024-03-17T13:45:22;7.63;;;4.38;;
14732;SDS011;7457;50.960;6.830;2024-03-17T13:47:59;6.22;;;4.03;;
14732;SDS011;7457;50.960;6.830;2024-03-17T13:50:26;5.05;;;3.67;;
14732;SDS011;7457;50.960;6.830;2024-03-17T13:52:52;4.82;;;3.70;;
14732;SDS011;7457;50.960;6.830;2024-03-17T13:55:20;6.80;;;3.90;;
14732;SDS011;7457;50.960;6.830;2024-03-17T13:57:50;8.00;;;3.72;;
14732;SDS011;7457;50.960;6.830;2024-03-17T14:00:20;5.10;;;3.50;;
14732;SDS011;7457;50.960;6.830;2024-03-17T14:02:47;5.80;;;3.70;;
14732;SDS011;7457;50.960;6.830;2024-03-17T14:05:15;5.18;;;3.80;;
14732;SDS011;7457;50.960;6.830;2024-03-17T14:07:42;6.00;;;4.00;;
14732;SDS011;7457;50.960;6.830;2024-03-17T14:10:10;5.78;;;3.70;;
14732;SDS011;7457;50.960;6.830;2024-03-17T14:12:37;5.30;;;3.92;;
14732;SDS011;7457;50.960;6.830;2024-03-17T14:15:04;5.72;;;3.65;;
14732;SDS011;7457;50.960;6.830;2024-03-17T14:17:31;4.90;;;3.10;;
14732;SDS011;7457;50.960;6.830;2024-03-17T14:19:58;4.03;;;3.63;;
14732;SDS011;7457;50.960;6.830;2024-03-17T14:22:24;6.28;;;3.67;;
14732;SDS011;7457;50.960;6.830;2024-03-17T14:24:49;4.82;;;4.00;;
14732;SDS011;7457;50.960;6.830;2024-03-17T14:27:15;5.63;;;3.67;;
14732;SDS011;7457;50.960;6.830;2024-03-17T14:29:43;5.47;;;4.05;;
14732;SDS011;7457;50.960;6.830;2024-03-17T14:32:09;4.38;;;3.50;;
14732;SDS011;7457;50.960;6.830;2024-03-17T14:34:34;4.50;;;3.25;;
14732;SDS011;7457;50.960;6.830;2024-03-17T14:37:02;5.97;;;3.40;;
14732;SDS011;7457;50.960;6.830;2024-03-17T14:39:28;4.93;;;3.88;;
14732;SDS011;7457;50.960;6.830;2024-03-17T14:41:55;4.13;;;3.28;;
14732;SDS011;7457;50.960;6.830;2024-03-17T14:44:21;4.45;;;3.60;;
14732;SDS011;7457;50.960;6.830;2024-03-17T14:46:47;8.90;;;5.78;;
14732;SDS011;7457;50.960;6.830;2024-03-17T14:49:16;5.20;;;3.60;;
14732;SDS011;7457;50.960;6.830;2024-03-17T14:51:45;4.47;;;3.20;;
14732;SDS011;7457;50.960;6.830;2024-03-17T14:54:11;5.55;;;3.45;;
14732;SDS011;7457;50.960;6.830;2024-03-17T14:56:38;6.90;;;3.83;;
14732;SDS011;7457;50.960;6.830;2024-03-17T14:59:05;5.22;;;3.50;;
14732;SDS011;7457;50.960;6.830;2024-03-17T15:01:31;9.15;;;3.83;;
14732;SDS011;7457;50.960;6.830;2024-03-17T15:03:57;5.93;;;3.80;;
14732;SDS011;7457;50.960;6.830;2024-03-17T15:06:22;7.95;;;4.22;;
14732;SDS011;7457;50.960;6.830;2024-03-17T15:08:49;4.05;;;3.55;;
14732;SDS011;7457;50.960;6.830;2024-03-17T15:11:16;4.40;;;3.78;;
14732;SDS011;7457;50.960;6.830;2024-03-17T15:13:43;4.25;;;3.38;;
14732;SDS011;7457;50.960;6.830;2024-03-17T15:16:09;6.07;;;3.75;;
14732;SDS011;7457;50.960;6.830;2024-03-17T15:18:35;4.72;;;3.47;;
14732;SDS011;7457;50.960;6.830;2024-03-17T15:21:02;4.97;;;3.40;;
14732;SDS011;7457;50.960;6.830;2024-03-17T15:23:30;6.15;;;3.15;;
14732;SDS011;7457;50.960;6.830;2024-03-17T15:28:27;4.95;;;3.20;;
14732;SDS011;7457;50.960;6.830;2024-03-17T15:30:52;4.63;;;3.47;;
14732;SDS011;7457;50.960;6.830;2024-03-17T15:33:18;3.92;;;3.30;;
14732;SDS011;7457;50.960;6.830;2024-03-17T15:35:44;5.68;;;3.50;;
14732;SDS011;7457;50.960;6.830;2024-03-17T15:38:12;4.30;;;3.08;;
14732;SDS011;7457;50.960;6.830;2024-03-17T15:40:37;3.92;;;2.95;;
14732;SDS011;7457;50.960;6.830;2024-03-17T15:43:03;4.15;;;3.40;;
14732;SDS011;7457;50.960;6.830;2024-03-17T15:45:29;4.55;;;3.20;;
14732;SDS011;7457;50.960;6.830;2024-03-17T15:47:55;5.93;;;3.40;;
14732;SDS011;7457;50.960;6.830;2024-03-17T15:50:21;5.03;;;3.13;;
14732;SDS011;7457;50.960;6.830;2024-03-17T15:52:47;5.38;;;3.45;;
14732;SDS011;7457;50.960;6.830;2024-03-17T15:55:13;4.43;;;3.20;;